Time;durP1;ratioP1;P1;durP2;ratioP2;P2;SDS_P1;SDS_P2;PMS_P1;PMS_P2;Temp;Humidity;BMP_temperature;BMP_pressure;BME280_temperature;BME280_humidity;BME280_pressure;Samples;Min_cycle;Max_cycle;Signal;HPM_P1;HPM_P2
2023/09/19 00:01:32;;;;;;;0.10;0.10;;;18.50;99.90;;;;;;5022970;28;20182;-81
2023/09/19 00:03:58;;;;;;;0.10;0.10;;;18.30;99.90;;;;;;5024211;28;20185;-81
2023/09/19 00:06:26;;;;;;;0.10;0.10;;;18.20;99.90;;;;;;5026223;28;20195;-82
2023/09/19 00:08:52;;;;;;;0.10;0.10;;;18.20;99.90;;;;;;5024803;28;20303;-81
2023/09/19 00:11:19;;;;;;;0.10;0.10;;;18.30;99.90;;;;;;5023707;28;20228;-81
2023/09/19 00:13:49;;;;;;;0.10;0.10;;;18.30;99.90;;;;;;5025726;28;20189;-81
2023/09/19 00:16:15;;;;;;;0.10;0.10;;;18.20;99.90;;;;;;5026349;28;20201;-81
2023/09/19 00:18:40;;;;;;;0.10;0.10;;;18.20;99.90;;;;;;5024866;28;20246;-80
2023/09/19 00:21:07;;;;;;;0.10;0.10;;;18.10;99.90;;;;;;5024874;28;20756;-80
2023/09/19 00:23:32;;;;;;;0.10;0.10;;;18.00;99.90;;;;;;5028598;28;20191;-80
2023/09/19 00:26:00;;;;;;;0.10;0.10;;;18.10;99.90;;;;;;5029746;28;20590;-80
2023/09/19 00:28:26;;;;;;;0.10;0.10;;;18.00;99.90;;;;;;5044091;28;20198;-80
2023/09/19 00:30:51;;;;;;;0.10;0.10;;;18.00;99.90;;;;;;5028520;28;20606;-80
2023/09/19 00:33:18;;;;;;;0.10;0.10;;;18.00;99.90;;;;;;5032229;28;20183;-80
2023/09/19 00:35:54;;;;;;;0.10;0.10;;;17.70;99.90;;;;;;5026594;28;20249;-80
2023/09/19 00:38:22;;;;;;;0.10;0.10;;;17.60;99.90;;;;;;5030607;28;20182;-80
2023/09/19 00:40:49;;;;;;;0.10;0.10;;;17.70;99.90;;;;;;5042408;28;20193;-80
2023/09/19 00:43:14;;;;;;;0.10;0.10;;;17.60;99.90;;;;;;5044599;28;20167;-80
2023/09/19 00:45:48;;;;;;;0.10;0.10;;;17.70;99.90;;;;;;5042672;28;20177;-80
2023/09/19 00:48:15;;;;;;;0.10;0.10;;;17.80;99.90;;;;;;5042928;28;20163;-81
2023/09/19 00:50:43;;;;;;;0.10;0.10;;;17.90;99.90;;;;;;5042218;28;20242;-81
2023/09/19 00:53:13;;;;;;;0.10;0.10;;;18.10;99.90;;;;;;5060883;28;20221;-82
2023/09/19 00:55:42;;;;;;;0.10;0.10;;;18.10;99.90;;;;;;5043600;28;20208;-81
2023/09/19 00:58:08;;;;;;;0.10;0.10;;;18.10;99.90;;;;;;5043230;28;20186;-81
2023/09/19 01:00:34;;;;;;;0.10;0.10;;;18.20;99.90;;;;;;5043692;28;20167;-81
2023/09/19 01:03:03;;;;;;;0.10;0.10;;;18.10;99.90;;;;;;5030944;28;20183;-81
2023/09/19 01:05:29;;;;;;;0.10;0.10;;;18.20;99.90;;;;;;5018991;28;20182;-81
2023/09/19 01:07:55;;;;;;;0.10;0.10;;;18.20;99.90;;;;;;5020337;28;20282;-81
2023/09/19 01:10:22;;;;;;;0.10;0.10;;;18.10;99.90;;;;;;5016887;28;20293;-81
2023/09/19 01:13:11;;;;;;;0.10;0.10;;;18.00;99.90;;;;;;5020388;28;20240;-80
2023/09/19 01:15:46;;;;;;;0.10;0.10;;;18.00;99.90;;;;;;5023288;28;20182;-81
2023/09/19 01:18:46;;;;;;;0.10;0.10;;;17.90;99.90;;;;;;5022711;28;20174;-81
2023/09/19 01:21:42;;;;;;;0.10;0.10;;;18.00;99.90;;;;;;5024302;28;20240;-81
2023/09/19 01:24:27;;;;;;;0.10;0.10;;;18.00;99.90;;;;;;5029645;28;20192;-81
2023/09/19 01:27:14;;;;;;;0.10;0.10;;;17.80;99.90;;;;;;5023616;28;20211;-81
2023/09/19 01:29:44;;;;;;;0.10;0.10;;;17.80;99.90;;;;;;5024753;28;20214;-81
2023/09/19 01:32:13;;;;;;;0.10;0.10;;;17.90;99.90;;;;;;5022928;28;20216;-81
2023/09/19 01:34:49;;;;;;;0.10;0.10;;;17.90;99.90;;;;;;5040179;28;20324;-80
2023/09/19 01:37:25;;;;;;;0.10;0.10;;;18.00;99.90;;;;;;5037221;28;20294;-81
2023/09/19 01:40:18;;;;;;;0.10;0.10;;;17.90;99.90;;;;;;5021144;28;20171;-81
2023/09/19 01:43:21;;;;;;;0.10;0.10;;;17.90;99.90;;;;;;5020966;28;20243;-81
2023/09/19 01:45:55;;;;;;;0.10;0.10;;;17.90;99.90;;;;;;5055391;28;20233;-80
2023/09/19 01:48:42;;;;;;;0.10;0.10;;;17.90;99.90;;;;;;5060752;28;20174;-81
2023/09/19 01:51:11;;;;;;;0.10;0.10;;;17.90;99.90;;;;;;5051705;28;20193;-80
2023/09/19 01:53:53;;;;;;;0.10;0.10;;;17.90;99.90;;;;;;5046137;28;20201;-81
2023/09/19 01:56:32;;;;;;;0.10;0.10;;;17.90;99.90;;;;;;5054350;28;20191;-80
2023/09/19 01:59:06;;;;;;;0.10;0.10;;;17.90;99.90;;;;;;5041766;28;20217;-81
2023/09/19 02:01:35;;;;;;;0.10;0.10;;;17.90;99.90;;;;;;5050208;28;20190;-81
2023/09/19 02:04:01;;;;;;;0.10;0.10;;;17.90;99.90;;;;;;5023306;28;20177;-81
2023/09/19 02:06:26;;;;;;;0.10;0.10;;;17.90;99.90;;;;;;5021171;28;20221;-81
2023/09/19 02:08:53;;;;;;;0.10;0.10;;;17.70;99.90;;;;;;5020964;28;20215;-81
2023/09/19 02:11:19;;;;;;;0.10;0.10;;;17.80;99.90;;;;;;5020521;28;20183;-81
2023/09/19 02:13:44;;;;;;;0.10;0.10;;;17.70;99.90;;;;;;5022551;28;20556;-81
2023/09/19 02:16:10;;;;;;;0.10;0.10;;;17.60;99.90;;;;;;5016384;28;20202;-81
2023/09/19 02:18:36;;;;;;;0.10;0.10;;;17.60;99.90;;;;;;5022593;28;20699;-81
2023/09/19 02:21:03;;;;;;;0.10;0.10;;;17.60;99.90;;;;;;5020322;28;20271;-81
2023/09/19 02:23:30;;;;;;;0.10;0.10;;;17.50;99.90;;;;;;5019683;28;20187;-81
2023/09/19 02:26:00;;;;;;;0.10;0.10;;;17.50;99.90;;;;;;5019410;28;20207;-81
2023/09/19 02:28:30;;;;;;;0.10;0.10;;;17.40;99.90;;;;;;5036408;28;20193;-80
2023/09/19 02:30:56;;;;;;;0.10;0.10;;;17.50;99.90;;;;;;5022486;28;20318;-81
2023/09/19 02:33:22;;;;;;;0.10;0.10;;;17.40;99.90;;;;;;5021266;28;20212;-80
2023/09/19 02:35:47;;;;;;;0.10;0.10;;;17.40;99.90;;;;;;5020259;28;20260;-81
2023/09/19 02:38:14;;;;;;;0.10;0.10;;;17.40;99.90;;;;;;5021449;28;20644;-80
2023/09/19 02:40:40;;;;;;;0.10;0.10;;;17.50;99.90;;;;;;5021152;28;20191;-81
2023/09/19 02:43:06;;;;;;;0.10;0.10;;;17.50;99.90;;;;;;5021472;28;20634;-81
2023/09/19 02:45:32;;;;;;;0.10;0.10;;;17.40;99.90;;;;;;5021206;28;20179;-81
2023/09/19 02:47:58;;;;;;;0.10;0.10;;;17.30;99.90;;;;;;5028868;28;20843;-81
2023/09/19 02:50:24;;;;;;;0.10;0.10;;;17.40;99.90;;;;;;5020573;28;20216;-81
2023/09/19 02:52:49;;;;;;;0.10;0.10;;;17.40;99.90;;;;;;5021150;28;20622;-81
2023/09/19 02:55:19;;;;;;;0.10;0.10;;;17.40;99.90;;;;;;5020139;28;20187;-81
2023/09/19 02:57:49;;;;;;;0.10;0.10;;;17.40;99.90;;;;;;5037563;28;20674;-81
2023/09/19 03:00:16;;;;;;;0.10;0.10;;;17.40;99.90;;;;;;5018938;28;20193;-81
2023/09/19 03:02:42;;;;;;;0.10;0.10;;;17.40;99.90;;;;;;5021109;28;20183;-81
2023/09/19 03:05:08;;;;;;;0.10;0.10;;;17.30;99.90;;;;;;5020190;28;20250;-81
2023/09/19 03:07:34;;;;;;;0.10;0.10;;;17.30;99.90;;;;;;5019864;28;20217;-81
2023/09/19 03:10:00;;;;;;;0.10;0.10;;;17.30;99.90;;;;;;5020383;28;20198;-81
2023/09/19 03:12:26;;;;;;;0.10;0.10;;;17.30;99.90;;;;;;5020654;28;20741;-81
2023/09/19 03:14:52;;;;;;;0.10;0.10;;;17.20;99.90;;;;;;5021472;28;20198;-81
2023/09/19 03:17:19;;;;;;;0.10;0.10;;;17.20;99.90;;;;;;5019988;28;20215;-80
2023/09/19 03:19:45;;;;;;;0.10;0.10;;;17.10;99.90;;;;;;5018609;28;20829;-81
2023/09/19 03:22:10;;;;;;;0.10;0.10;;;16.90;99.90;;;;;;5016581;28;20178;-81
2023/09/19 03:24:37;;;;;;;0.10;0.10;;;16.70;99.90;;;;;;5032797;28;20187;-81
2023/09/19 03:27:03;;;;;;;0.10;0.10;;;16.80;99.90;;;;;;5037029;28;20228;-80
2023/09/19 03:29:29;;;;;;;0.10;0.10;;;16.90;99.90;;;;;;5037785;28;20207;-80
2023/09/19 03:31:55;;;;;;;0.10;0.10;;;16.90;99.90;;;;;;5033941;28;20178;-81
2023/09/19 03:34:21;;;;;;;0.10;0.10;;;16.90;99.90;;;;;;5035378;28;20183;-80
2023/09/19 03:36:46;;;;;;;0.10;0.10;;;16.80;99.90;;;;;;5035256;28;20210;-80
2023/09/19 03:39:15;;;;;;;0.10;0.10;;;16.80;99.90;;;;;;5036418;28;20186;-80
2023/09/19 03:41:41;;;;;;;0.10;0.10;;;16.80;99.90;;;;;;5029547;28;20187;-80
2023/09/19 03:44:07;;;;;;;0.10;0.10;;;16.70;99.90;;;;;;5031081;28;21175;-81
2023/09/19 03:46:34;;;;;;;0.10;0.10;;;16.80;99.90;;;;;;5030227;28;20593;-80
2023/09/19 03:48:59;;;;;;;0.10;0.10;;;16.70;99.90;;;;;;5031601;28;20202;-80
2023/09/19 03:51:25;;;;;;;0.10;0.10;;;16.60;99.90;;;;;;5043865;28;20777;-80
2023/09/19 03:53:51;;;;;;;0.10;0.10;;;16.60;99.90;;;;;;5027951;28;20186;-80
2023/09/19 03:56:16;;;;;;;0.10;0.10;;;16.50;99.90;;;;;;5028652;28;20208;-80
2023/09/19 03:58:42;;;;;;;0.10;0.10;;;16.60;99.90;;;;;;5027048;28;20257;-79
2023/09/19 04:01:07;;;;;;;0.10;0.10;;;16.50;99.90;;;;;;5027239;28;20189;-80
2023/09/19 04:03:47;;;;;;;0.10;0.10;;;16.50;99.90;;;;;;5026896;28;20198;-80
2023/09/19 04:06:16;;;;;;;0.10;0.10;;;16.50;99.90;;;;;;5020275;28;20202;-79
2023/09/19 04:08:42;;;;;;;0.10;0.10;;;16.50;99.90;;;;;;5023086;28;20297;-80
2023/09/19 04:11:08;;;;;;;0.10;0.10;;;16.50;99.90;;;;;;5030029;28;20183;-80
2023/09/19 04:13:34;;;;;;;0.10;0.10;;;16.20;99.90;;;;;;5027612;28;20266;-81
2023/09/19 04:15:59;;;;;;;0.10;0.10;;;16.10;99.90;;;;;;5025078;28;20230;-79
2023/09/19 04:18:26;;;;;;;0.10;0.10;;;16.10;99.90;;;;;;5018175;28;20175;-80
2023/09/19 04:20:51;;;;;;;0.10;0.10;;;16.00;99.90;;;;;;5016957;28;20195;-80
2023/09/19 04:23:19;;;;;;;0.10;0.10;;;16.20;99.90;;;;;;5022947;28;20182;-80
2023/09/19 04:25:45;;;;;;;0.10;0.10;;;16.10;99.90;;;;;;5023847;28;20202;-81
2023/09/19 04:28:10;;;;;;;0.10;0.10;;;16.10;99.90;;;;;;5025853;28;20236;-80
2023/09/19 04:30:37;;;;;;;0.10;0.10;;;16.30;99.90;;;;;;5027027;28;20686;-80
2023/09/19 04:33:03;;;;;;;0.10;0.10;;;16.10;99.90;;;;;;5026539;28;20174;-80
2023/09/19 04:35:31;;;;;;;0.10;0.10;;;16.10;99.90;;;;;;5026632;28;20186;-80
2023/09/19 04:37:57;;;;;;;0.03;0.03;;;16.10;99.90;;;;;;5028287;28;20194;-80
2023/09/19 04:40:24;;;;;;;0.00;0.00;;;16.20;99.90;;;;;;5024051;28;20201;-80
2023/09/19 04:42:56;;;;;;;0.10;0.10;;;16.10;99.90;;;;;;5017222;28;20190;-79
2023/09/19 04:45:26;;;;;;;0.10;0.10;;;16.10;99.90;;;;;;5019700;28;20591;-80
2023/09/19 04:47:52;;;;;;;0.10;0.10;;;16.20;99.90;;;;;;5038759;28;20579;-80
2023/09/19 04:50:18;;;;;;;0.10;0.10;;;16.30;99.90;;;;;;5019396;28;20244;-79
2023/09/19 04:52:44;;;;;;;0.10;0.10;;;16.30;99.90;;;;;;5020159;28;20210;-79
2023/09/19 04:55:16;;;;;;;0.10;0.10;;;16.30;99.90;;;;;;5021196;28;20234;-79
2023/09/19 04:57:44;;;;;;;0.10;0.10;;;16.10;99.90;;;;;;5021731;28;20588;-79
2023/09/19 05:00:13;;;;;;;0.10;0.10;;;16.00;99.90;;;;;;5021197;28;20183;-79
2023/09/19 05:02:39;;;;;;;0.10;0.10;;;16.00;99.90;;;;;;5020364;28;20224;-79
2023/09/19 05:05:07;;;;;;;0.10;0.10;;;16.00;99.90;;;;;;5037828;28;20190;-80
2023/09/19 05:07:34;;;;;;;0.10;0.10;;;16.00;99.90;;;;;;5025911;28;20203;-80
2023/09/19 05:09:59;;;;;;;0.10;0.10;;;16.00;99.90;;;;;;5022281;28;20195;-78
2023/09/19 05:12:27;;;;;;;0.10;0.10;;;16.00;99.90;;;;;;5022392;28;20232;-78
2023/09/19 05:14:52;;;;;;;0.10;0.10;;;16.00;99.90;;;;;;5021543;28;20305;-79
2023/09/19 05:17:18;;;;;;;0.10;0.10;;;16.00;99.90;;;;;;5021570;28;20678;-79
2023/09/19 05:19:43;;;;;;;0.10;0.10;;;16.00;99.90;;;;;;5020853;28;20667;-79
2023/09/19 05:22:09;;;;;;;0.10;0.10;;;16.10;99.90;;;;;;5020284;28;20385;-79
2023/09/19 05:24:34;;;;;;;0.10;0.10;;;16.10;99.90;;;;;;5020764;28;20248;-79
2023/09/19 05:27:00;;;;;;;0.10;0.10;;;16.10;99.90;;;;;;5017007;28;20213;-79
2023/09/19 05:29:26;;;;;;;0.10;0.10;;;16.10;99.90;;;;;;5023858;28;20947;-79
2023/09/19 05:31:54;;;;;;;0.10;0.10;;;16.20;99.90;;;;;;5022983;28;20186;-79
2023/09/19 05:34:20;;;;;;;0.10;0.10;;;16.20;99.90;;;;;;5021862;28;20191;-79
2023/09/19 05:36:45;;;;;;;0.10;0.10;;;16.20;99.90;;;;;;5025089;28;20285;-81
2023/09/19 05:39:12;;;;;;;0.10;0.10;;;16.20;99.90;;;;;;5023193;28;20175;-81
2023/09/19 05:41:39;;;;;;;0.10;0.10;;;16.30;99.90;;;;;;5023070;28;20629;-81
2023/09/19 05:44:06;;;;;;;0.10;0.10;;;16.40;99.90;;;;;;5024316;28;20649;-81
2023/09/19 05:46:32;;;;;;;0.10;0.10;;;16.40;99.90;;;;;;5021643;28;20202;-81
2023/09/19 05:48:58;;;;;;;0.10;0.10;;;16.40;99.90;;;;;;5022355;28;20211;-81
2023/09/19 05:51:23;;;;;;;0.10;0.10;;;16.50;99.90;;;;;;5024354;28;20183;-81
2023/09/19 05:53:50;;;;;;;0.10;0.10;;;16.40;99.90;;;;;;5021974;28;20182;-81
2023/09/19 05:56:17;;;;;;;0.10;0.10;;;16.40;99.90;;;;;;5021785;28;20222;-81
2023/09/19 05:58:44;;;;;;;0.10;0.10;;;16.50;99.90;;;;;;5020674;28;20191;-81
2023/09/19 06:01:09;;;;;;;0.10;0.10;;;16.50;99.90;;;;;;5021187;28;20202;-81
2023/09/19 06:03:35;;;;;;;0.10;0.10;;;16.50;99.90;;;;;;5020826;28;20657;-81
2023/09/19 06:06:06;;;;;;;0.10;0.10;;;16.60;99.90;;;;;;5020795;28;20202;-81
2023/09/19 06:08:34;;;;;;;0.10;0.10;;;16.60;99.90;;;;;;5020509;28;20199;-81
2023/09/19 06:11:00;;;;;;;0.10;0.10;;;16.70;99.90;;;;;;5023423;28;20600;-81
2023/09/19 06:13:28;;;;;;;0.10;0.10;;;16.70;99.90;;;;;;5020652;28;20266;-81
2023/09/19 06:15:56;;;;;;;0.10;0.10;;;16.80;99.90;;;;;;5037273;28;20708;-81
2023/09/19 06:18:26;;;;;;;0.10;0.10;;;16.90;99.90;;;;;;5020374;28;20175;-81
2023/09/19 06:20:52;;;;;;;0.10;0.10;;;16.90;99.90;;;;;;5018097;28;20318;-80
2023/09/19 06:23:19;;;;;;;0.10;0.10;;;16.90;99.90;;;;;;5024788;28;20654;-80
2023/09/19 06:25:45;;;;;;;0.10;0.10;;;16.90;99.90;;;;;;5022425;28;20174;-80
2023/09/19 06:28:14;;;;;;;0.10;0.10;;;17.00;99.90;;;;;;5022230;28;20184;-80
2023/09/19 06:30:44;;;;;;;0.10;0.10;;;17.00;99.90;;;;;;5023671;28;20198;-91
2023/09/19 06:33:11;;;;;;;0.10;0.10;;;17.00;99.90;;;;;;5013752;28;20166;-82
2023/09/19 06:35:37;;;;;;;0.10;0.10;;;17.00;99.90;;;;;;5017654;28;20672;-81
2023/09/19 06:38:04;;;;;;;0.10;0.10;;;17.20;99.90;;;;;;5016138;28;20187;-82
2023/09/19 06:40:30;;;;;;;0.10;0.10;;;17.30;99.90;;;;;;5017928;28;20183;-82
2023/09/19 06:42:57;;;;;;;0.10;0.10;;;17.30;99.90;;;;;;5016883;28;20196;-82
2023/09/19 06:45:22;;;;;;;0.10;0.10;;;17.40;99.90;;;;;;5016057;28;20233;-82
2023/09/19 06:47:49;;;;;;;0.10;0.10;;;17.50;99.90;;;;;;5017255;28;20202;-82
2023/09/19 06:50:19;;;;;;;0.10;0.10;;;17.60;99.90;;;;;;5017952;28;20203;-82
2023/09/19 06:52:46;;;;;;;0.10;0.10;;;17.70;99.90;;;;;;5020315;28;20270;-82
2023/09/19 06:55:13;;;;;;;0.10;0.10;;;17.80;99.90;;;;;;5022258;28;20176;-82
2023/09/19 06:57:40;;;;;;;0.10;0.10;;;17.90;99.90;;;;;;5018100;28;20269;-81
2023/09/19 07:00:15;;;;;;;0.10;0.10;;;17.80;99.90;;;;;;5017054;28;20240;-80
2023/09/19 07:03:00;;;;;;;0.10;0.10;;;17.90;99.90;;;;;;5015937;28;20760;-81
2023/09/19 07:05:27;;;;;;;0.10;0.10;;;17.90;99.90;;;;;;5032596;28;20277;-81
2023/09/19 07:07:54;;;;;;;0.10;0.10;;;17.90;99.90;;;;;;5019998;28;20222;-80
2023/09/19 07:10:20;;;;;;;0.10;0.10;;;17.80;99.90;;;;;;5017405;28;20213;-81
2023/09/19 07:12:45;;;;;;;0.10;0.10;;;17.80;99.90;;;;;;5019768;28;20182;-82
2023/09/19 07:15:11;;;;;;;0.10;0.10;;;17.80;99.90;;;;;;5021260;28;20248;-81
2023/09/19 07:17:36;;;;;;;0.10;0.10;;;17.80;99.90;;;;;;5019957;28;20198;-81
2023/09/19 07:20:07;;;;;;;0.10;0.10;;;17.90;99.90;;;;;;5018569;28;20191;-81
2023/09/19 07:22:33;;;;;;;0.10;0.10;;;17.90;99.90;;;;;;5018254;28;20186;-81
2023/09/19 07:24:58;;;;;;;0.10;0.10;;;18.00;99.90;;;;;;5020107;28;20212;-80
2023/09/19 07:27:24;;;;;;;0.10;0.10;;;18.00;99.90;;;;;;5019780;28;20217;-80
2023/09/19 07:29:50;;;;;;;0.10;0.10;;;18.10;99.90;;;;;;5020156;28;20208;-81
2023/09/19 07:32:17;;;;;;;0.10;0.10;;;18.10;99.90;;;;;;5019106;28;20171;-81
2023/09/19 07:34:44;;;;;;;0.10;0.10;;;18.20;99.90;;;;;;5017225;28;20178;-81
2023/09/19 07:37:10;;;;;;;0.10;0.10;;;18.20;99.90;;;;;;5017555;28;20213;-81
2023/09/19 07:39:35;;;;;;;0.10;0.10;;;18.30;99.90;;;;;;5020021;28;20186;-81
2023/09/19 07:42:01;;;;;;;0.10;0.10;;;18.30;99.90;;;;;;5017775;28;20189;-81
2023/09/19 07:44:26;;;;;;;0.10;0.10;;;18.30;99.90;;;;;;5020774;28;20177;-81
2023/09/19 07:46:53;;;;;;;0.10;0.10;;;18.40;99.90;;;;;;5019038;28;20608;-81
2023/09/19 07:49:19;;;;;;;0.10;0.10;;;18.30;99.90;;;;;;5018471;28;20205;-81
2023/09/19 07:51:47;;;;;;;0.10;0.10;;;18.20;99.90;;;;;;5019303;28;20551;-81
2023/09/19 07:54:14;;;;;;;0.10;0.10;;;18.00;99.90;;;;;;5018170;28;20183;-81
2023/09/19 07:56:40;;;;;;;0.10;0.10;;;18.10;99.90;;;;;;5021670;28;20273;-81
2023/09/19 07:59:05;;;;;;;0.10;0.10;;;18.20;99.90;;;;;;5020842;28;20324;-82
2023/09/19 08:01:32;;;;;;;0.10;0.10;;;18.30;99.90;;;;;;5018854;28;20680;-81
2023/09/19 08:03:58;;;;;;;0.10;0.10;;;18.40;99.90;;;;;;5015793;28;20190;-81
2023/09/19 08:06:24;;;;;;;0.10;0.10;;;18.40;99.90;;;;;;5032677;28;20960;-82
2023/09/19 08:08:56;;;;;;;0.00;0.00;;;18.50;99.90;;;;;;5015980;28;20218;-81
2023/09/19 08:11:24;;;;;;;0.10;0.10;;;18.60;99.90;;;;;;5018979;28;21151;-81
2023/09/19 08:13:51;;;;;;;0.10;0.10;;;18.70;99.90;;;;;;5021445;28;20177;-80
2023/09/19 08:16:17;;;;;;;0.10;0.10;;;18.90;99.90;;;;;;5020524;28;20206;-81
2023/09/19 08:18:47;;;;;;;0.10;0.10;;;18.80;99.90;;;;;;5016211;28;20184;-80
2023/09/19 08:21:14;;;;;;;0.10;0.10;;;18.70;99.90;;;;;;5017938;28;20174;-81
2023/09/19 08:23:40;;;;;;;0.10;0.10;;;18.80;99.90;;;;;;5015205;28;20174;-80
2023/09/19 08:26:07;;;;;;;0.10;0.10;;;18.90;99.90;;;;;;5022019;28;20293;-83
2023/09/19 08:28:33;;;;;;;0.10;0.10;;;19.10;99.90;;;;;;5019401;28;20178;-81
2023/09/19 08:31:04;;;;;;;0.10;0.10;;;19.10;99.90;;;;;;5026828;28;20535;-81
2023/09/19 08:33:35;;;;;;;0.10;0.10;;;18.90;99.90;;;;;;5013729;28;20174;-81
2023/09/19 08:36:01;;;;;;;0.10;0.10;;;19.00;99.90;;;;;;5027042;28;20234;-81
2023/09/19 08:38:30;;;;;;;0.10;0.10;;;19.10;99.90;;;;;;5027275;28;20240;-81
2023/09/19 08:41:00;;;;;;;0.10;0.10;;;19.00;99.90;;;;;;5018984;28;20229;-81
2023/09/19 08:43:26;;;;;;;0.10;0.10;;;18.80;99.90;;;;;;5019765;28;20183;-81
2023/09/19 08:46:03;;;;;;;0.10;0.10;;;18.80;99.90;;;;;;5018528;28;20242;-81
2023/09/19 08:48:31;;;;;;;0.10;0.10;;;19.10;99.90;;;;;;5012710;28;20187;-81
2023/09/19 08:51:06;;;;;;;0.10;0.10;;;19.20;99.90;;;;;;5021744;28;20176;-80
2023/09/19 08:53:54;;;;;;;0.10;0.10;;;19.20;99.90;;;;;;5020746;28;20682;-80
2023/09/19 08:56:22;;;;;;;0.10;0.10;;;19.40;99.90;;;;;;5021037;28;20647;-81
2023/09/19 08:58:53;;;;;;;0.10;0.10;;;19.30;99.90;;;;;;5021146;28;20186;-80
2023/09/19 09:01:24;;;;;;;0.10;0.10;;;19.50;99.90;;;;;;5018071;28;20188;-81
2023/09/19 09:03:52;;;;;;;0.10;0.10;;;19.50;99.90;;;;;;5018504;28;20193;-80
2023/09/19 09:06:20;;;;;;;0.10;0.10;;;19.30;99.90;;;;;;5018047;28;20208;-81
2023/09/19 09:08:47;;;;;;;0.10;0.10;;;19.40;99.90;;;;;;5020629;28;20219;-80
2023/09/19 09:11:14;;;;;;;0.10;0.10;;;19.50;99.90;;;;;;5023039;28;20547;-81
2023/09/19 09:13:41;;;;;;;0.10;0.10;;;19.50;99.90;;;;;;5024129;28;20190;-80
2023/09/19 09:16:07;;;;;;;0.10;0.10;;;19.50;99.90;;;;;;5024376;28;20203;-81
2023/09/19 09:18:33;;;;;;;0.10;0.10;;;19.80;99.90;;;;;;5036368;28;20232;-80
2023/09/19 09:20:59;;;;;;;0.10;0.10;;;19.80;99.90;;;;;;5025475;28;20183;-81
2023/09/19 09:23:28;;;;;;;0.10;0.10;;;19.90;99.90;;;;;;5018913;28;20186;-80
2023/09/19 09:26:02;;;;;;;0.10;0.10;;;20.00;99.90;;;;;;5022482;28;20581;-81
2023/09/19 09:28:28;;;;;;;0.10;0.10;;;20.10;99.90;;;;;;5023892;28;20793;-80
2023/09/19 09:30:55;;;;;;;0.10;0.10;;;20.00;99.90;;;;;;5023986;28;20710;-81
2023/09/19 09:33:21;;;;;;;0.10;0.10;;;19.90;99.90;;;;;;5019168;28;20207;-80
2023/09/19 09:35:59;;;;;;;0.10;0.10;;;19.80;99.90;;;;;;5022303;28;20192;-81
2023/09/19 09:38:27;;;;;;;0.10;0.10;;;19.90;99.90;;;;;;5030811;28;20673;-82
2023/09/19 09:41:06;;;;;;;0.10;0.10;;;20.00;99.90;;;;;;5023752;28;20201;-80
2023/09/19 09:43:35;;;;;;;0.10;0.10;;;20.20;99.90;;;;;;5023102;28;20209;-81
2023/09/19 09:49:27;;;;;;;0.10;0.10;;;20.30;99.90;;;;;;5019147;28;20183;-80
2023/09/19 09:52:06;;;;;;;0.10;0.10;;;20.50;99.90;;;;;;5019562;28;20178;-81
2023/09/19 09:54:36;;;;;;;0.10;0.10;;;20.50;99.90;;;;;;5037046;28;20186;-81
2023/09/19 09:57:20;;;;;;;0.10;0.10;;;20.50;99.90;;;;;;5017696;28;20199;-80
2023/09/19 09:59:50;;;;;;;0.10;0.10;;;20.50;99.90;;;;;;5019308;28;20260;-80
2023/09/19 10:02:32;;;;;;;0.10;0.10;;;20.70;99.90;;;;;;5020925;28;20189;-80
2023/09/19 10:05:06;;;;;;;0.10;0.10;;;20.70;99.90;;;;;;5016853;28;20194;-81
2023/09/19 10:07:32;;;;;;;0.10;0.10;;;20.70;99.90;;;;;;5016736;28;20607;-80
2023/09/19 10:10:28;;;;;;;0.10;0.10;;;20.60;99.90;;;;;;5036527;28;20260;-81
2023/09/19 10:13:02;;;;;;;0.10;0.10;;;20.50;99.90;;;;;;5019068;28;20179;-84
2023/09/19 10:15:32;;;;;;;0.10;0.10;;;20.70;99.90;;;;;;5021461;28;20187;-81
2023/09/19 10:18:01;;;;;;;0.10;0.10;;;20.90;99.90;;;;;;5021903;28;20199;-80
2023/09/19 10:22:57;;;;;;;0.10;0.10;;;21.00;99.90;;;;;;5023970;28;20186;-81
2023/09/19 10:25:26;;;;;;;0.10;0.10;;;21.00;99.90;;;;;;5018350;28;20194;-80
2023/09/19 10:27:55;;;;;;;0.10;0.10;;;21.20;99.90;;;;;;5022209;28;20211;-80
2023/09/19 10:30:22;;;;;;;0.10;0.10;;;21.40;99.90;;;;;;5037776;28;20708;-81
2023/09/19 10:32:56;;;;;;;0.10;0.10;;;21.50;99.90;;;;;;5015940;28;20807;-80
2023/09/19 10:35:23;;;;;;;0.10;0.10;;;20.90;99.90;;;;;;5020431;28;20270;-82
2023/09/19 10:37:51;;;;;;;0.10;0.10;;;20.70;99.90;;;;;;5018424;28;20203;-82
2023/09/19 10:40:20;;;;;;;0.10;0.10;;;20.70;99.90;;;;;;5035244;28;20194;-81
2023/09/19 10:42:48;;;;;;;0.10;0.10;;;20.60;99.90;;;;;;5015645;28;20563;-82
2023/09/19 10:45:20;;;;;;;0.10;0.10;;;20.60;99.90;;;;;;5020374;28;20260;-81
2023/09/19 10:47:47;;;;;;;0.10;0.10;;;20.80;99.90;;;;;;5020028;28;20213;-82
2023/09/19 10:50:23;;;;;;;0.10;0.10;;;21.00;99.90;;;;;;5019828;28;20208;-82
2023/09/19 10:52:57;;;;;;;0.10;0.10;;;21.50;99.90;;;;;;5018459;28;20193;-81
2023/09/19 10:55:25;;;;;;;0.10;0.10;;;21.80;99.90;;;;;;5022403;28;20183;-81
2023/09/19 10:57:51;;;;;;;0.10;0.10;;;21.90;99.90;;;;;;5027044;28;20199;-81
2023/09/19 11:00:23;;;;;;;0.10;0.10;;;21.80;99.90;;;;;;5025850;28;20213;-81
2023/09/19 11:03:11;;;;;;;0.10;0.10;;;21.80;99.90;;;;;;5046923;28;20261;-82
2023/09/19 11:05:40;;;;;;;0.10;0.10;;;21.80;99.90;;;;;;5046744;28;20190;-82
2023/09/19 11:08:07;;;;;;;0.10;0.10;;;21.80;99.90;;;;;;5030934;28;20194;-82
2023/09/19 11:10:51;;;;;;;0.10;0.10;;;21.50;99.90;;;;;;5041595;28;20237;-81
2023/09/19 11:13:30;;;;;;;0.10;0.10;;;21.10;99.90;;;;;;5022489;28;20598;-81
2023/09/19 11:15:59;;;;;;;0.10;0.10;;;20.90;99.90;;;;;;5018924;28;20195;-82
2023/09/19 11:18:40;;;;;;;0.10;0.10;;;21.00;99.90;;;;;;5035583;28;20777;-82
2023/09/19 11:21:29;;;;;;;0.10;0.10;;;20.80;99.90;;;;;;5020787;28;20198;-81
2023/09/19 11:24:10;;;;;;;0.10;0.10;;;21.10;99.90;;;;;;5018410;28;20172;-82
2023/09/19 11:26:48;;;;;;;0.10;0.10;;;21.40;99.90;;;;;;5020290;28;20214;-81
2023/09/19 11:29:28;;;;;;;0.10;0.10;;;21.40;99.90;;;;;;5019933;28;20285;-81
2023/09/19 11:31:55;;;;;;;0.10;0.10;;;21.40;99.90;;;;;;5019251;28;20171;-82
2023/09/19 11:34:39;;;;;;;0.10;0.10;;;21.70;99.90;;;;;;5020006;28;20179;-82
2023/09/19 11:37:13;;;;;;;0.10;0.10;;;21.80;99.90;;;;;;5019337;28;20201;-82
2023/09/19 11:39:42;;;;;;;0.10;0.10;;;21.60;99.90;;;;;;5020045;28;20203;-81
2023/09/19 11:42:53;;;;;;;0.10;0.10;;;21.50;99.90;;;;;;5020274;28;20194;-82
2023/09/19 11:45:49;;;;;;;0.10;0.10;;;21.60;99.90;;;;;;5020595;28;20265;-82
2023/09/19 11:48:25;;;;;;;0.10;0.10;;;21.70;99.90;;;;;;5017531;28;20187;-81
2023/09/19 11:50:52;;;;;;;0.10;0.10;;;21.80;99.90;;;;;;5017924;28;20253;-81
2023/09/19 11:53:19;;;;;;;0.10;0.10;;;21.90;99.90;;;;;;5019122;28;20186;-82
2023/09/19 11:55:45;;;;;;;0.10;0.10;;;21.90;99.90;;;;;;5019303;28;20592;-81
2023/09/19 11:58:14;;;;;;;0.10;0.10;;;22.00;99.90;;;;;;5018737;28;20183;-82
2023/09/19 12:00:43;;;;;;;0.10;0.10;;;21.90;99.90;;;;;;5016437;28;20617;-82
2023/09/19 12:03:11;;;;;;;0.10;0.10;;;21.80;99.90;;;;;;5019110;28;20182;-81
2023/09/19 12:05:37;;;;;;;0.10;0.10;;;21.60;99.90;;;;;;5019560;28;20218;-81
2023/09/19 12:08:10;;;;;;;0.10;0.10;;;21.80;99.90;;;;;;5019226;28;20198;-81
2023/09/19 12:10:49;;;;;;;0.10;0.10;;;21.80;99.90;;;;;;5019007;28;20197;-82
2023/09/19 12:13:18;;;;;;;0.10;0.10;;;21.90;99.90;;;;;;5017838;28;20174;-80
2023/09/19 12:15:47;;;;;;;0.10;0.10;;;21.90;99.90;;;;;;5015678;28;20706;-81
2023/09/19 12:18:29;;;;;;;0.10;0.10;;;21.90;99.70;;;;;;5020574;28;20174;-82
2023/09/19 12:20:57;;;;;;;0.10;0.10;;;21.90;99.90;;;;;;5019195;28;20210;-81
2023/09/19 12:23:23;;;;;;;0.10;0.10;;;22.20;99.90;;;;;;5018598;28;20176;-81
2023/09/19 12:25:52;;;;;;;0.10;0.10;;;22.20;99.60;;;;;;5019120;28;20244;-81
2023/09/19 12:28:18;;;;;;;0.10;0.10;;;22.10;99.10;;;;;;5016979;28;20190;-81
2023/09/19 12:30:44;;;;;;;0.10;0.10;;;21.80;99.00;;;;;;5018185;28;20204;-81
2023/09/19 12:33:25;;;;;;;0.10;0.10;;;21.90;99.30;;;;;;5020845;28;20266;-82
2023/09/19 12:35:53;;;;;;;0.10;0.10;;;22.00;99.10;;;;;;5017525;28;20705;-83
2023/09/19 12:38:28;;;;;;;0.10;0.10;;;22.10;99.00;;;;;;5017092;28;20270;-82
2023/09/19 12:41:00;;;;;;;0.10;0.10;;;22.20;99.20;;;;;;5032365;28;20179;-82
2023/09/19 12:43:27;;;;;;;0.10;0.10;;;22.10;99.40;;;;;;5033970;28;20694;-83
2023/09/19 12:45:53;;;;;;;0.10;0.10;;;22.20;98.70;;;;;;5016913;28;20206;-84
2023/09/19 12:48:32;;;;;;;0.10;0.10;;;22.20;98.40;;;;;;5017681;28;20187;-83
2023/09/19 12:51:13;;;;;;;0.10;0.10;;;22.30;98.60;;;;;;5015961;28;20195;-82
2023/09/19 12:53:46;;;;;;;0.10;0.10;;;22.70;98.80;;;;;;5017057;28;20187;-82
2023/09/19 12:56:16;;;;;;;0.10;0.10;;;22.70;98.20;;;;;;5018481;28;20194;-82
2023/09/19 12:59:03;;;;;;;0.10;0.10;;;22.90;98.30;;;;;;5021824;28;20738;-84
2023/09/19 13:01:29;;;;;;;0.10;0.10;;;23.00;98.20;;;;;;5017793;28;20179;-82
2023/09/19 13:04:25;;;;;;;0.10;0.10;;;23.00;97.90;;;;;;5018912;28;20663;-83
2023/09/19 13:06:52;;;;;;;0.10;0.10;;;23.00;97.90;;;;;;5016450;28;20203;-83